Time;durP1;ratioP1;P1;durP2;ratioP2;P2;SDS_P1;SDS_P2;PMS_P1;PMS_P2;Temp;Humidity;BMP_temperature;BMP_pressure;BME280_temperature;BME280_humidity;BME280_pressure;Samples;Min_cycle;Max_cycle;Signal;HPM_P1;HPM_P2
2024/03/27 00:00:07;;;;;;;3.83;1.42;;;;;;;-141.50;100.00;63355.56;4920643;29;20067;-85
2024/03/27 00:02:34;;;;;;;5.57;1.60;;;;;;;-141.50;100.00;63355.56;4937211;29;20059;-85
2024/03/27 00:05:00;;;;;;;3.95;1.40;;;;;;;-141.50;100.00;63355.56;4914961;29;20118;-84
2024/03/27 00:07:26;;;;;;;7.55;1.45;;;;;;;-141.50;100.00;63355.56;4912731;29;20063;-84
2024/03/27 00:09:52;;;;;;;4.88;1.70;;;;;;;-141.50;100.00;63355.56;4920140;29;20059;-84
2024/03/27 00:12:18;;;;;;;4.20;1.60;;;;;;;-141.50;100.00;63355.56;4917729;29;20067;-86
2024/03/27 00:14:44;;;;;;;6.00;1.63;;;;;;;-141.50;100.00;63355.56;4937928;28;20067;-86
2024/03/27 00:17:10;;;;;;;3.42;1.58;;;;;;;-141.50;100.00;63355.56;4919507;29;20164;-87
2024/03/27 00:19:36;;;;;;;4.70;1.50;;;;;;;-141.50;100.00;63355.56;4919782;29;20043;-86
2024/03/27 00:22:02;;;;;;;3.72;1.35;;;;;;;-141.50;100.00;63355.56;4918589;29;20044;-87
2024/03/27 00:24:31;;;;;;;3.88;1.35;;;;;;;-141.50;100.00;63355.56;4933323;29;20059;-86
2024/03/27 00:26:57;;;;;;;4.63;1.52;;;;;;;-141.50;100.00;63355.56;4913694;29;20512;-85
2024/03/27 00:29:23;;;;;;;7.95;1.90;;;;;;;-141.50;100.00;63355.56;4919517;29;20078;-86
2024/03/27 00:31:51;;;;;;;3.70;1.40;;;;;;;-141.50;100.00;63355.56;4920379;29;20186;-87
2024/03/27 00:34:17;;;;;;;7.65;1.77;;;;;;;-141.50;100.00;63355.56;4921058;29;20047;-86
2024/03/27 00:36:43;;;;;;;3.22;1.48;;;;;;;-141.50;100.00;63355.56;4920427;29;20054;-85
2024/03/27 00:39:09;;;;;;;4.45;1.48;;;;;;;-141.50;100.00;63355.56;4921000;28;20138;-85
2024/03/27 00:41:35;;;;;;;5.82;1.45;;;;;;;-141.50;100.00;63355.56;4921207;29;20401;-87
2024/03/27 00:44:01;;;;;;;3.95;1.30;;;;;;;-141.50;100.00;63355.56;4902484;28;20060;-87
2024/03/27 00:46:27;;;;;;;5.97;1.70;;;;;;;-141.50;100.00;63355.56;4920047;29;20453;-86
2024/03/27 00:48:53;;;;;;;4.38;1.60;;;;;;;-141.50;100.00;63355.56;4917456;29;20072;-86
2024/03/27 00:51:19;;;;;;;5.05;1.42;;;;;;;-141.50;100.00;63355.56;4919591;29;20393;-85
2024/03/27 00:53:45;;;;;;;4.15;1.58;;;;;;;-141.50;100.00;63355.56;4921658;29;20051;-85
2024/03/27 00:56:11;;;;;;;3.60;1.40;;;;;;;-141.50;100.00;63355.56;4919723;29;20060;-85
2024/03/27 00:58:37;;;;;;;6.68;1.52;;;;;;;-141.50;100.00;63355.56;4919677;29;20067;-86
2024/03/27 01:01:03;;;;;;;4.70;1.48;;;;;;;-141.50;100.00;63355.56;4913502;29;20059;-87
2024/03/27 01:03:30;;;;;;;4.32;1.48;;;;;;;-141.50;100.00;63355.56;4919008;29;20051;-86
2024/03/27 01:05:55;;;;;;;3.30;1.30;;;;;;;-141.50;100.00;63355.56;4916559;29;20059;-87
2024/03/27 01:08:21;;;;;;;3.53;1.40;;;;;;;-141.50;100.00;63355.56;4916976;29;20079;-84
2024/03/27 01:10:50;;;;;;;3.92;1.40;;;;;;;-141.50;100.00;63355.56;4918422;29;20074;-84
2024/03/27 01:13:17;;;;;;;9.38;1.50;;;;;;;-141.50;100.00;63355.56;4918549;29;20130;-85
2024/03/27 01:15:53;;;;;;;3.75;1.60;;;;;;;-141.50;100.00;63355.56;4914857;29;20506;-84
2024/03/27 01:18:19;;;;;;;5.28;1.35;;;;;;;-141.50;100.00;63355.56;4917826;29;20040;-85
2024/03/27 01:20:45;;;;;;;4.68;1.48;;;;;;;-141.50;100.00;63355.56;4939963;28;20039;-87
2024/03/27 01:23:12;;;;;;;4.25;1.48;;;;;;;-141.50;100.00;63355.56;4914123;29;20095;-87
2024/03/27 01:25:39;;;;;;;6.65;1.60;;;;;;;-141.50;100.00;63355.56;4914664;29;20250;-86
2024/03/27 01:28:05;;;;;;;4.93;1.38;;;;;;;-141.50;100.00;63355.56;4920220;29;20063;-85
2024/03/27 01:30:31;;;;;;;4.00;1.40;;;;;;;-141.50;100.00;63355.56;4917563;29;20401;-86
2024/03/27 01:32:58;;;;;;;3.05;1.33;;;;;;;-141.50;100.00;63355.56;4918851;29;20043;-85
2024/03/27 01:35:25;;;;;;;5.38;1.45;;;;;;;-141.50;100.00;63355.56;4920731;29;20087;-85
2024/03/27 01:37:51;;;;;;;3.30;1.30;;;;;;;-141.50;100.00;63355.56;4922358;29;20138;-86
2024/03/27 01:40:17;;;;;;;4.45;1.50;;;;;;;-141.50;100.00;63355.56;4916708;29;20055;-86
2024/03/27 01:42:43;;;;;;;4.97;1.50;;;;;;;-141.50;100.00;63355.56;4921164;29;20441;-86
2024/03/27 01:45:13;;;;;;;3.63;1.38;;;;;;;-141.50;100.00;63355.56;4919102;28;20138;-86
2024/03/27 01:47:42;;;;;;;5.57;1.40;;;;;;;-141.50;100.00;63355.56;4918045;29;20688;-85
2024/03/27 01:50:12;;;;;;;5.22;1.38;;;;;;;-141.50;100.00;63355.56;4917062;29;20067;-84
2024/03/27 01:52:40;;;;;;;3.70;1.52;;;;;;;-141.50;100.00;63355.56;4917989;29;20242;-87
2024/03/27 01:55:08;;;;;;;3.58;1.40;;;;;;;-141.50;100.00;63355.56;4924139;29;21856;-84
2024/03/27 01:57:38;;;;;;;5.43;1.33;;;;;;;-141.50;100.00;63355.56;4931297;29;20392;-85
2024/03/27 02:00:05;;;;;;;3.50;1.48;;;;;;;-141.50;100.00;63355.56;4912155;29;20059;-85
2024/03/27 02:02:39;;;;;;;5.32;1.50;;;;;;;-141.50;100.00;63355.56;4918029;29;20060;-85
2024/03/27 02:05:06;;;;;;;5.18;1.52;;;;;;;-141.50;100.00;63355.56;4917596;29;20079;-85
2024/03/27 02:07:32;;;;;;;4.55;1.45;;;;;;;-141.50;100.00;63355.56;4911083;29;20040;-85
2024/03/27 02:10:00;;;;;;;5.55;1.67;;;;;;;-141.50;100.00;63355.56;4919895;29;20103;-85
2024/03/27 02:12:27;;;;;;;4.43;1.52;;;;;;;-141.50;100.00;63355.56;4921613;29;20107;-86
2024/03/27 02:14:53;;;;;;;4.25;1.27;;;;;;;-141.50;100.00;63355.56;4911814;29;20052;-86
2024/03/27 02:17:22;;;;;;;4.25;1.27;;;;;;;-141.50;100.00;63355.56;4917779;29;20044;-86
2024/03/27 02:19:48;;;;;;;3.95;1.38;;;;;;;-141.50;100.00;63355.56;4915562;29;20048;-85
2024/03/27 02:22:14;;;;;;;5.72;1.45;;;;;;;-141.50;100.00;63355.56;4918562;28;20082;-85
2024/03/27 02:24:45;;;;;;;5.07;1.50;;;;;;;-141.50;100.00;63355.56;4920489;29;20059;-84
2024/03/27 02:27:12;;;;;;;3.85;1.60;;;;;;;-141.50;100.00;63355.56;4920802;29;20051;-87
2024/03/27 02:29:38;;;;;;;5.75;1.48;;;;;;;-141.50;100.00;63355.56;4919525;29;20068;-85
2024/03/27 02:32:05;;;;;;;4.72;1.50;;;;;;;-141.50;100.00;63355.56;4919753;29;20091;-85
2024/03/27 02:34:31;;;;;;;4.07;1.50;;;;;;;-141.50;100.00;63355.56;4917684;29;20059;-86
2024/03/27 02:36:57;;;;;;;3.97;1.38;;;;;;;-141.50;100.00;63355.56;4921412;29;20537;-87
2024/03/27 02:39:23;;;;;;;7.05;1.65;;;;;;;-141.50;100.00;63355.56;4894453;29;20135;-87
2024/03/27 02:41:49;;;;;;;3.38;1.50;;;;;;;-141.50;100.00;63355.56;4905012;29;20509;-86
2024/03/27 02:44:15;;;;;;;5.22;1.50;;;;;;;-141.50;100.00;63355.56;4908372;29;20075;-87
2024/03/27 02:46:41;;;;;;;2.95;1.48;;;;;;;-141.50;100.00;63355.56;4921760;29;20059;-85
2024/03/27 02:49:07;;;;;;;3.35;1.60;;;;;;;-141.50;100.00;63355.56;4921843;29;20135;-84
2024/03/27 02:51:33;;;;;;;6.18;2.13;;;;;;;-141.50;100.00;63355.56;4915029;29;20314;-87
2024/03/27 02:54:00;;;;;;;4.95;1.60;;;;;;;-141.50;100.00;63355.56;4936247;28;20059;-86
2024/03/27 02:56:26;;;;;;;5.82;1.40;;;;;;;-141.50;100.00;63355.56;4921419;29;20047;-89
2024/03/27 02:58:55;;;;;;;3.45;1.30;;;;;;;-141.50;100.00;63355.56;4935257;29;20087;-86
2024/03/27 03:01:21;;;;;;;7.75;1.30;;;;;;;-141.50;100.00;63355.56;4914735;29;20130;-86
2024/03/27 03:03:47;;;;;;;7.32;1.70;;;;;;;-141.50;100.00;63355.56;4920555;29;20567;-86
2024/03/27 03:06:13;;;;;;;3.10;1.15;;;;;;;-141.50;100.00;63355.56;4913371;29;20083;-85
2024/03/27 03:08:39;;;;;;;5.70;1.48;;;;;;;-141.50;100.00;63355.56;4920467;29;20461;-85
2024/03/27 03:11:05;;;;;;;7.20;1.30;;;;;;;-141.50;100.00;63355.56;4918199;28;20068;-85
2024/03/27 03:13:31;;;;;;;4.63;1.30;;;;;;;-141.50;100.00;63355.56;4918487;29;20492;-85
2024/03/27 03:15:56;;;;;;;3.75;1.45;;;;;;;-141.50;100.00;63355.56;4919323;29;20156;-86
2024/03/27 03:18:22;;;;;;;3.08;1.20;;;;;;;-141.50;100.00;63355.56;4918657;29;20074;-86
2024/03/27 03:20:48;;;;;;;3.47;1.52;;;;;;;-141.50;100.00;63355.56;4914073;29;20056;-86
2024/03/27 03:23:14;;;;;;;4.93;1.25;;;;;;;-141.50;100.00;63355.56;4917767;29;20048;-88
2024/03/27 03:25:40;;;;;;;3.42;1.02;;;;;;;-141.50;100.00;63355.56;4919081;29;20481;-87
2024/03/27 03:28:06;;;;;;;8.82;1.70;;;;;;;-141.50;100.00;63355.56;4913460;29;20055;-87
2024/03/27 03:30:32;;;;;;;3.67;1.25;;;;;;;-141.50;100.00;63355.56;4918904;29;20131;-87
2024/03/27 03:32:58;;;;;;;6.30;1.35;;;;;;;-141.50;100.00;63355.56;4917612;29;20051;-85
2024/03/27 03:35:25;;;;;;;4.30;1.42;;;;;;;-141.50;100.00;63355.56;4916738;29;20102;-85
2024/03/27 03:37:51;;;;;;;3.40;1.20;;;;;;;-141.50;100.00;63355.56;4918294;29;20060;-87
2024/03/27 03:40:17;;;;;;;3.85;1.35;;;;;;;-141.50;100.00;63355.56;4910752;29;20047;-85
2024/03/27 03:42:43;;;;;;;7.10;1.50;;;;;;;-141.50;100.00;63355.56;4918657;29;20165;-85
2024/03/27 03:45:09;;;;;;;7.53;1.40;;;;;;;-141.50;100.00;63355.56;4921903;29;20476;-85
2024/03/27 03:47:34;;;;;;;4.45;1.48;;;;;;;-141.50;100.00;63355.56;4917590;29;20119;-86
2024/03/27 03:50:00;;;;;;;2.83;1.40;;;;;;;-141.50;100.00;63355.56;4919783;29;20556;-85
2024/03/27 03:52:26;;;;;;;4.28;1.38;;;;;;;-141.50;100.00;63355.56;4926115;29;20072;-86
2024/03/27 03:54:52;;;;;;;4.35;1.20;;;;;;;-141.50;100.00;63355.56;4943256;28;20048;-85
2024/03/27 03:57:18;;;;;;;3.33;1.10;;;;;;;-141.50;100.00;63355.56;4932314;29;20104;-85
2024/03/27 03:59:44;;;;;;;4.28;1.40;;;;;;;-141.50;100.00;63355.56;4915801;29;20062;-86
2024/03/27 04:02:10;;;;;;;4.60;1.40;;;;;;;-141.50;100.00;63355.56;4917652;28;20055;-84
2024/03/27 04:04:36;;;;;;;3.90;1.40;;;;;;;-141.50;100.00;63355.56;4910512;29;20070;-85
2024/03/27 04:07:02;;;;;;;3.90;1.58;;;;;;;-141.50;100.00;63355.56;4907161;29;20056;-85
2024/03/27 04:09:30;;;;;;;5.97;1.67;;;;;;;-141.50;100.00;63355.56;4913192;29;20609;-85
2024/03/27 04:11:56;;;;;;;7.45;1.40;;;;;;;-141.50;100.00;63355.56;4917682;29;20427;-87
2024/03/27 04:14:22;;;;;;;5.35;1.63;;;;;;;-141.50;100.00;63355.56;4916106;29;20051;-86
2024/03/27 04:16:47;;;;;;;8.48;1.50;;;;;;;-141.50;100.00;63355.56;4914151;29;20460;-85
2024/03/27 04:19:13;;;;;;;6.68;1.42;;;;;;;-141.50;100.00;63355.56;4913180;29;20079;-85
2024/03/27 04:21:39;;;;;;;4.72;1.30;;;;;;;-141.50;100.00;63355.56;4914637;29;20066;-86
2024/03/27 04:24:05;;;;;;;3.33;1.38;;;;;;;-141.50;100.00;63355.56;4914006;29;20063;-85
2024/03/27 04:26:31;;;;;;;5.15;1.30;;;;;;;-141.50;100.00;63355.56;4917207;29;20051;-87
2024/03/27 04:28:58;;;;;;;6.25;1.30;;;;;;;-141.50;100.00;63355.56;4913933;29;20083;-88
2024/03/27 04:31:24;;;;;;;4.53;1.45;;;;;;;-141.50;100.00;63355.56;4918950;29;20437;-85
2024/03/27 04:33:50;;;;;;;4.45;1.10;;;;;;;-141.50;100.00;63355.56;4919473;29;20137;-85
2024/03/27 04:36:17;;;;;;;4.90;1.30;;;;;;;-141.50;100.00;63355.56;4918893;28;20048;-87
2024/03/27 04:38:43;;;;;;;5.43;1.38;;;;;;;-141.50;100.00;63355.56;4914441;29;20064;-86
2024/03/27 04:41:09;;;;;;;3.97;1.30;;;;;;;-141.50;100.00;63355.56;4918675;29;20052;-86
2024/03/27 04:43:37;;;;;;;3.83;1.42;;;;;;;-141.50;100.00;63355.56;4913311;29;20051;-84
2024/03/27 04:46:04;;;;;;;4.78;1.23;;;;;;;-141.50;100.00;63355.56;4908636;28;20107;-85
2024/03/27 04:48:30;;;;;;;5.22;1.50;;;;;;;-141.50;100.00;63355.56;4913959;29;20047;-88
2024/03/27 04:50:56;;;;;;;6.50;1.60;;;;;;;-141.50;100.00;63355.56;4916155;29;20058;-86
2024/03/27 04:53:22;;;;;;;3.22;1.38;;;;;;;-141.50;100.00;63355.56;4916579;29;20127;-85
2024/03/27 04:55:55;;;;;;;3.03;1.30;;;;;;;-141.50;100.00;63355.56;4915680;29;20052;-85
2024/03/27 04:58:21;;;;;;;4.57;1.55;;;;;;;-141.50;100.00;63355.56;4908869;29;20412;-85
2024/03/27 05:00:50;;;;;;;6.13;1.58;;;;;;;-141.50;100.00;63355.56;4907514;29;20197;-85
2024/03/27 05:03:18;;;;;;;3.13;1.42;;;;;;;-141.50;100.00;63355.56;4888890;29;20455;-85
2024/03/27 05:05:45;;;;;;;4.35;1.50;;;;;;;-141.50;100.00;63355.56;4921393;29;20058;-84
2024/03/27 05:08:13;;;;;;;6.35;1.65;;;;;;;-141.50;100.00;63355.56;4894163;29;20075;-86
2024/03/27 05:10:40;;;;;;;5.70;1.38;;;;;;;-141.50;100.00;63355.56;4911768;29;20044;-86
2024/03/27 05:13:05;;;;;;;3.53;1.35;;;;;;;-141.50;100.00;63355.56;4906380;29;20058;-84
2024/03/27 05:15:31;;;;;;;3.75;1.17;;;;;;;-141.50;100.00;63355.56;4917117;29;20502;-84
2024/03/27 05:17:58;;;;;;;9.65;1.67;;;;;;;-141.50;100.00;63355.56;4932513;28;20492;-83
2024/03/27 05:20:24;;;;;;;5.97;1.30;;;;;;;-141.50;100.00;63355.56;4887628;29;20189;-81
2024/03/27 05:22:51;;;;;;;4.68;1.30;;;;;;;-141.50;100.00;63355.56;4914054;29;20056;-86
2024/03/27 05:25:18;;;;;;;6.07;1.60;;;;;;;-141.50;100.00;63355.56;4912575;29;20334;-86
2024/03/27 05:27:44;;;;;;;3.97;1.25;;;;;;;-141.50;100.00;63355.56;4913546;29;20040;-86
2024/03/27 05:30:10;;;;;;;5.15;1.55;;;;;;;-141.50;100.00;63355.56;4908510;29;20088;-85
2024/03/27 05:32:36;;;;;;;4.30;1.08;;;;;;;-141.50;100.00;63355.56;4915945;29;20377;-86
2024/03/27 05:35:03;;;;;;;4.25;1.20;;;;;;;-141.50;100.00;63355.56;4918616;29;20064;-87
2024/03/27 05:37:28;;;;;;;5.00;1.30;;;;;;;-141.50;100.00;63355.56;4918001;29;20070;-86
2024/03/27 05:39:54;;;;;;;2.75;1.38;;;;;;;-141.50;100.00;63355.56;4883850;29;20079;-85
2024/03/27 05:42:20;;;;;;;3.47;1.20;;;;;;;-141.50;100.00;63355.56;4906773;29;20520;-86
2024/03/27 05:44:46;;;;;;;3.63;1.40;;;;;;;-141.50;100.00;63355.56;4917916;29;20052;-86
2024/03/27 05:47:12;;;;;;;2.40;1.20;;;;;;;-141.50;100.00;63355.56;4920780;29;20047;-86
2024/03/27 05:49:38;;;;;;;4.72;1.38;;;;;;;-141.50;100.00;63355.56;4914440;29;20062;-86
2024/03/27 05:52:05;;;;;;;5.35;1.30;;;;;;;-141.50;100.00;63355.56;4920369;29;20326;-85
2024/03/27 05:54:31;;;;;;;4.07;1.50;;;;;;;-141.50;100.00;63355.56;4913922;29;20580;-85
2024/03/27 05:56:58;;;;;;;4.00;1.23;;;;;;;-141.50;100.00;63355.56;4907180;29;20114;-86
2024/03/27 05:59:24;;;;;;;3.90;1.15;;;;;;;-141.50;100.00;63355.56;4905779;29;20067;-86
2024/03/27 06:01:50;;;;;;;5.20;1.48;;;;;;;-141.50;100.00;63355.56;4915806;29;20063;-86
2024/03/27 06:04:16;;;;;;;5.13;1.50;;;;;;;-141.50;100.00;63355.56;4922401;28;20043;-87
2024/03/27 06:06:42;;;;;;;5.80;1.65;;;;;;;-141.50;100.00;63355.56;4916482;29;20052;-87
2024/03/27 06:09:08;;;;;;;2.95;1.33;;;;;;;-141.50;100.00;63355.56;4921819;28;20114;-87
2024/03/27 06:11:35;;;;;;;3.42;1.35;;;;;;;-141.50;100.00;63355.56;4927825;28;20047;-83
2024/03/27 06:14:01;;;;;;;4.97;1.42;;;;;;;-141.50;100.00;63355.56;4921226;29;20051;-82
2024/03/27 06:16:27;;;;;;;4.65;1.48;;;;;;;-141.50;100.00;63355.56;4915654;29;20558;-82
2024/03/27 06:18:54;;;;;;;6.13;1.60;;;;;;;-141.50;100.00;63355.56;4915969;29;20052;-82
2024/03/27 06:21:20;;;;;;;6.15;1.60;;;;;;;-141.50;100.00;63355.56;4916648;29;20067;-81
2024/03/27 06:23:46;;;;;;;10.05;1.40;;;;;;;-141.50;100.00;63355.56;4918342;29;20055;-81
2024/03/27 06:26:12;;;;;;;4.88;1.33;;;;;;;-141.50;100.00;63355.56;4918668;29;20106;-82
2024/03/27 06:28:38;;;;;;;4.32;1.70;;;;;;;-141.50;100.00;63355.56;4917110;29;20060;-82
2024/03/27 06:31:03;;;;;;;7.53;2.03;;;;;;;-141.50;100.00;63355.56;4916952;29;20441;-82
2024/03/27 06:33:29;;;;;;;6.68;1.85;;;;;;;-141.50;100.00;63355.56;4920723;29;20080;-81
2024/03/27 06:35:56;;;;;;;3.28;1.38;;;;;;;-141.50;100.00;63355.56;4900655;29;20067;-81
2024/03/27 06:38:23;;;;;;;4.43;1.48;;;;;;;-141.50;100.00;63355.56;4916934;29;20344;-86
2024/03/27 06:40:50;;;;;;;3.22;1.50;;;;;;;-141.50;100.00;63355.56;4913991;29;20062;-86
2024/03/27 06:43:16;;;;;;;6.65;2.00;;;;;;;-141.50;100.00;63355.56;4910479;28;20224;-86
2024/03/27 06:45:43;;;;;;;6.25;2.55;;;;;;;-141.50;100.00;63355.56;4913368;29;20389;-86
2024/03/27 06:48:10;;;;;;;12.57;3.88;;;;;;;-141.50;100.00;63355.56;4913325;29;20139;-85
2024/03/27 06:50:36;;;;;;;8.57;3.03;;;;;;;-141.50;100.00;63355.56;4914830;29;20179;-87
2024/03/27 06:53:02;;;;;;;4.78;1.45;;;;;;;-141.50;100.00;63355.56;4916906;28;20055;-85
2024/03/27 06:55:28;;;;;;;9.88;2.85;;;;;;;-141.50;100.00;63355.56;4917477;29;20048;-87
2024/03/27 06:57:54;;;;;;;36.60;9.75;;;;;;;-141.50;100.00;63355.56;4902797;29;20217;-85
2024/03/27 07:00:20;;;;;;;33.35;7.93;;;;;;;-141.50;100.00;63355.56;4908614;29;20063;-86
2024/03/27 07:02:46;;;;;;;38.63;11.02;;;;;;;-141.50;100.00;63355.56;4931241;28;20070;-84
2024/03/27 07:05:13;;;;;;;46.13;12.60;;;;;;;-141.50;100.00;63355.56;4912048;29;20116;-86
2024/03/27 07:07:43;;;;;;;10.13;3.10;;;;;;;-141.50;100.00;63355.56;4910265;29;20107;-85
2024/03/27 07:10:09;;;;;;;5.30;2.15;;;;;;;-141.50;100.00;63355.56;4924162;29;20424;-86
2024/03/27 07:12:36;;;;;;;8.50;3.30;;;;;;;-141.50;100.00;63355.56;4916185;29;20040;-86
2024/03/27 07:15:02;;;;;;;8.45;1.60;;;;;;;-141.50;100.00;63355.56;4929931;28;20052;-85
2024/03/27 07:17:28;;;;;;;6.53;1.48;;;;;;;-141.50;100.00;63355.56;4913009;29;20087;-85
2024/03/27 07:19:54;;;;;;;3.03;1.13;;;;;;;-141.50;100.00;63355.56;4917616;29;20078;-85
2024/03/27 07:22:20;;;;;;;3.63;1.23;;;;;;;-141.50;100.00;63355.56;4916799;29;20505;-87
2024/03/27 07:24:50;;;;;;;2.65;1.25;;;;;;;-141.50;100.00;63355.56;4916077;29;20059;-87
2024/03/27 07:27:15;;;;;;;3.65;1.40;;;;;;;-141.50;100.00;63355.56;4909776;29;20051;-87
2024/03/27 07:29:42;;;;;;;4.05;1.75;;;;;;;-141.50;100.00;63355.56;4918146;29;20094;-86
2024/03/27 07:32:08;;;;;;;2.90;1.38;;;;;;;-141.50;100.00;63355.56;4901368;29;20060;-85
2024/03/27 07:34:34;;;;;;;5.10;1.90;;;;;;;-141.50;100.00;63355.56;4917834;29;20079;-86
2024/03/27 07:37:00;;;;;;;4.13;2.00;;;;;;;-141.50;100.00;63355.56;4915964;29;20047;-85
2024/03/27 07:39:26;;;;;;;3.67;1.50;;;;;;;-141.50;100.00;63355.56;4917049;29;20054;-85
2024/03/27 07:41:51;;;;;;;6.68;1.95;;;;;;;-141.50;100.00;63355.56;4916418;29;20059;-86
2024/03/27 07:44:18;;;;;;;4.30;1.45;;;;;;;-141.50;100.00;63355.56;4918481;29;20040;-87
2024/03/27 07:46:44;;;;;;;9.05;3.15;;;;;;;-141.50;100.00;63355.56;4912589;29;20040;-85
2024/03/27 07:49:10;;;;;;;6.50;2.75;;;;;;;-141.50;100.00;63355.56;4912791;28;20079;-85
2024/03/27 07:51:36;;;;;;;6.60;2.80;;;;;;;-141.50;100.00;63355.56;4913098;29;20593;-86
2024/03/27 07:54:02;;;;;;;10.82;4.60;;;;;;;-141.50;100.00;63355.56;4906915;29;20063;-87
2024/03/27 07:56:28;;;;;;;4.88;1.45;;;;;;;-141.50;100.00;63355.56;4908971;29;20079;-85
2024/03/27 07:58:54;;;;;;;4.57;1.80;;;;;;;-141.50;100.00;63355.56;4917360;29;20058;-85
2024/03/27 08:01:20;;;;;;;3.63;1.10;;;;;;;-141.50;100.00;63355.56;4913084;29;20044;-85
2024/03/27 08:03:46;;;;;;;5.95;1.30;;;;;;;-141.50;100.00;63355.56;4916879;29;20054;-84
2024/03/27 08:06:13;;;;;;;2.92;1.20;;;;;;;-141.50;100.00;63355.56;4914986;29;20107;-86
2024/03/27 08:08:43;;;;;;;2.92;1.30;;;;;;;-141.50;100.00;63355.56;4912937;29;20039;-86
2024/03/27 08:11:11;;;;;;;3.33;1.40;;;;;;;-141.50;100.00;63355.56;4913887;29;20498;-86
2024/03/27 08:13:38;;;;;;;3.92;1.40;;;;;;;-141.50;100.00;63355.56;4918237;29;20159;-85
2024/03/27 08:16:09;;;;;;;6.32;1.20;;;;;;;-141.50;100.00;63355.56;4920910;29;20052;-85
2024/03/27 08:18:43;;;;;;;3.28;1.20;;;;;;;-141.50;100.00;63355.56;4917585;29;20786;-86
2024/03/27 08:21:09;;;;;;;2.88;1.25;;;;;;;-141.50;100.00;63355.56;4917724;29;20074;-87
2024/03/27 08:23:35;;;;;;;2.95;1.17;;;;;;;-141.50;100.00;63355.56;4910967;29;20119;-84
2024/03/27 08:26:02;;;;;;;5.18;1.30;;;;;;;-141.50;100.00;63355.56;4915832;28;20051;-84
2024/03/27 08:28:29;;;;;;;2.85;1.10;;;;;;;-141.50;100.00;63355.56;4917850;29;20086;-85
2024/03/27 08:30:55;;;;;;;6.82;1.40;;;;;;;-141.50;100.00;63355.56;4911870;29;20429;-84
2024/03/27 08:33:21;;;;;;;4.28;1.42;;;;;;;-141.50;100.00;63355.56;4915047;29;20079;-83
2024/03/27 08:35:48;;;;;;;4.13;1.30;;;;;;;-141.50;100.00;63355.56;4917056;29;20284;-84
2024/03/27 08:38:14;;;;;;;4.35;1.40;;;;;;;-141.50;100.00;63355.56;4915581;29;20086;-83
2024/03/27 08:40:40;;;;;;;2.72;1.33;;;;;;;-141.50;100.00;63355.56;4915088;29;20044;-85
2024/03/27 08:43:07;;;;;;;4.15;1.40;;;;;;;-141.50;100.00;63355.56;4914090;29;20508;-85
2024/03/27 08:45:33;;;;;;;2.63;1.25;;;;;;;-141.50;100.00;63355.56;4915106;29;20055;-86
2024/03/27 08:47:59;;;;;;;4.15;1.40;;;;;;;-141.50;100.00;63355.56;4913687;28;20082;-86
2024/03/27 08:50:25;;;;;;;3.50;1.38;;;;;;;-141.50;100.00;63355.56;4909528;29;20066;-86
2024/03/27 08:52:53;;;;;;;6.30;1.20;;;;;;;-141.50;100.00;63355.56;4915381;29;20056;-85
2024/03/27 08:55:19;;;;;;;3.17;1.20;;;;;;;-141.50;100.00;63355.56;4916427;28;20067;-87
2024/03/27 08:57:45;;;;;;;3.17;1.15;;;;;;;-141.50;100.00;63355.56;4914177;29;20060;-87
2024/03/27 09:00:11;;;;;;;5.13;1.40;;;;;;;-141.50;100.00;63355.56;4914632;29;20054;-85
2024/03/27 09:02:37;;;;;;;5.97;1.30;;;;;;;-141.50;100.00;63355.56;4912454;29;20509;-85
2024/03/27 09:05:03;;;;;;;2.90;1.30;;;;;;;-141.50;100.00;63355.56;4913677;28;20056;-84
2024/03/27 09:07:30;;;;;;;4.35;1.55;;;;;;;-141.50;100.00;63355.56;4911813;29;20087;-84
2024/03/27 09:09:55;;;;;;;3.10;1.15;;;;;;;-141.50;100.00;63355.56;4915055;29;20460;-87
2024/03/27 09:12:21;;;;;;;2.20;1.08;;;;;;;-141.50;100.00;63355.56;4900407;29;20333;-85
2024/03/27 09:14:47;;;;;;;4.47;1.10;;;;;;;-141.50;100.00;63355.56;4915575;29;20531;-85
2024/03/27 09:17:16;;;;;;;8.73;1.30;;;;;;;-141.50;100.00;63355.56;4914807;29;20064;-85
2024/03/27 09:19:42;;;;;;;4.90;1.30;;;;;;;-141.50;100.00;63355.56;4917126;29;20102;-85
2024/03/27 09:22:08;;;;;;;3.72;1.10;;;;;;;-141.50;100.00;63355.56;4905291;29;20521;-85
2024/03/27 09:24:33;;;;;;;4.55;1.38;;;;;;;-141.50;100.00;63355.56;4914872;29;20338;-84
2024/03/27 09:27:02;;;;;;;5.25;1.20;;;;;;;-141.50;100.00;63355.56;4930017;29;20421;-85
2024/03/27 09:29:28;;;;;;;3.63;1.30;;;;;;;-141.50;100.00;63355.56;4915296;29;20138;-85
2024/03/27 09:31:54;;;;;;;3.03;1.35;;;;;;;-141.50;100.00;63355.56;4911043;29;20083;-84
2024/03/27 09:34:20;;;;;;;3.38;1.13;;;;;;;-141.50;100.00;63355.56;4908887;29;20052;-85
2024/03/27 09:36:46;;;;;;;4.38;1.60;;;;;;;-141.50;100.00;63355.56;4911216;29;20424;-85
2024/03/27 09:39:12;;;;;;;3.13;1.20;;;;;;;-141.50;100.00;63355.56;4915845;29;20086;-86
2024/03/27 09:41:38;;;;;;;2.67;1.17;;;;;;;-141.50;100.00;63355.56;4914803;29;20491;-87
2024/03/27 09:44:06;;;;;;;9.00;1.23;;;;;;;-141.50;100.00;63355.56;4916087;29;20087;-84
2024/03/27 09:46:36;;;;;;;3.08;1.02;;;;;;;-141.50;100.00;63355.56;4919109;29;20090;-85
2024/03/27 09:49:04;;;;;;;3.17;1.05;;;;;;;-141.50;100.00;63355.56;4914976;28;20099;-85
2024/03/27 09:51:34;;;;;;;2.72;1.40;;;;;;;-141.50;100.00;63355.56;4919393;29;20060;-86
2024/03/27 09:54:08;;;;;;;2.75;1.10;;;;;;;-141.50;100.00;63355.56;4915405;29;20115;-85
2024/03/27 09:56:37;;;;;;;2.22;1.13;;;;;;;-141.50;100.00;63355.56;4910948;29;20465;-85
2024/03/27 09:59:04;;;;;;;4.07;1.40;;;;;;;-141.50;100.00;63355.56;4915917;29;20226;-86
2024/03/27 10:01:31;;;;;;;2.60;1.02;;;;;;;-141.50;100.00;63355.56;4901628;29;20083;-85
2024/03/27 10:04:00;;;;;;;4.25;1.10;;;;;;;-141.50;100.00;63355.56;4876647;29;20151;-86
2024/03/27 10:06:26;;;;;;;6.32;1.40;;;;;;;-141.50;100.00;63355.56;4917654;29;20168;-86
2024/03/27 10:08:52;;;;;;;3.03;1.10;;;;;;;-141.50;100.00;63355.56;4914016;29;20429;-85
2024/03/27 10:11:18;;;;;;;1.92;1.05;;;;;;;-141.50;100.00;63355.56;4906926;29;20078;-85
2024/03/27 10:13:44;;;;;;;2.35;1.33;;;;;;;-141.50;100.00;63355.56;4911211;29;20080;-86
2024/03/27 10:16:10;;;;;;;3.00;1.20;;;;;;;-141.50;100.00;63355.56;4915160;29;20052;-85
2024/03/27 10:18:41;;;;;;;4.28;1.10;;;;;;;-141.50;100.00;63355.56;4913664;29;20063;-85
2024/03/27 10:21:10;;;;;;;6.00;1.30;;;;;;;-141.50;100.00;63355.56;4931293;29;20051;-86
2024/03/27 10:23:36;;;;;;;4.13;1.08;;;;;;;-141.50;100.00;63355.56;4914988;29;20052;-86
2024/03/27 10:26:03;;;;;;;4.40;0.90;;;;;;;-141.50;100.00;63355.56;4914897;29;20064;-86
2024/03/27 10:28:35;;;;;;;4.30;1.00;;;;;;;-141.50;100.00;63355.56;4917205;29;20126;-85
2024/03/27 10:31:02;;;;;;;4.55;1.20;;;;;;;-141.50;100.00;63355.56;4914943;28;20059;-86
2024/03/27 10:33:31;;;;;;;8.88;1.10;;;;;;;-141.50;100.00;63355.56;4916952;29;20119;-86
2024/03/27 10:35:58;;;;;;;1.42;0.80;;;;;;;-141.50;100.00;63355.56;4909517;28;20119;-85
2024/03/27 10:38:29;;;;;;;5.97;1.17;;;;;;;-141.50;100.00;63355.56;4909089;29;20404;-86
2024/03/27 10:41:03;;;;;;;3.15;1.30;;;;;;;-141.50;100.00;63355.56;4911247;29;20056;-85
2024/03/27 10:43:50;;;;;;;4.47;1.30;;;;;;;-141.50;100.00;63355.56;4918851;29;20116;-86
2024/03/27 10:46:16;;;;;;;5.15;1.10;;;;;;;-141.50;100.00;63355.56;4912600;29;20452;-86
2024/03/27 10:48:43;;;;;;;3.95;1.20;;;;;;;-141.50;100.00;63355.56;4917682;29;20087;-85
2024/03/27 10:51:11;;;;;;;3.72;1.35;;;;;;;-141.50;100.00;63355.56;4912580;29;20452;-86
2024/03/27 10:53:38;;;;;;;3.25;1.30;;;;;;;-141.50;100.00;63355.56;4912024;29;20165;-87
2024/03/27 10:56:05;;;;;;;7.53;0.95;;;;;;;-141.50;100.00;63355.56;4917425;28;20051;-86
2024/03/27 10:58:31;;;;;;;2.55;1.10;;;;;;;-141.50;100.00;63355.56;4920958;29;20071;-87
2024/03/27 11:00:58;;;;;;;5.28;1.20;;;;;;;-141.50;100.00;63355.56;4916166;29;20055;-87
2024/03/27 11:03:27;;;;;;;3.17;1.10;;;;;;;-141.50;100.00;63355.56;4916167;29;20048;-86
2024/03/27 11:05:53;;;;;;;4.78;1.20;;;;;;;-141.50;100.00;63355.56;4917009;29;20055;-85